LIRF/FCO METAR and TAF weather

Enter ICAO airport designator
Station Type Date Time Source
LIRF METAR 2019/02/20 23:20 UTC NOAA

LIRF 202320Z 06003KT CAVOK 05/03 Q1026 NOSIG


Station Type Date Time Source
LIRF Decoded METAR 2019/02/20 23:20 UTC NOAA

Roma Fiumicino, Italy (LIRF) 41-48N 012-14E 3M
Feb 20, 2019 - 06:20 PM EST / 2019.02.20 2320 UTC
Wind: from the ENE (060 degrees) at 3 MPH (3 KT):0
Visibility: greater than 7 mile(s):0
Temperature: 41 F (5 C)
Dew Point: 37 F (3 C)
Relative Humidity: 86%
Pressure (altimeter): 30.30 in. Hg (1026 hPa)
ob: LIRF 202320Z 06003KT CAVOK 05/03 Q1026 NOSIG
cycle: 23

Station Type Date Time Source
LIRF TAF 2019/02/20 18:23 UTC NOAA

TAF LIRF 201700Z 2018/2124 VRB05KT 9999 FEW020
BECMG 2110/2112 31010KT


Example: see airport list